createdAt,value
2023-02-16T00:00:56.083Z,-23.92
2023-02-16T00:03:27.259Z,-23.36
2023-02-16T00:06:16.931Z,-23.16
2023-02-16T00:08:48.653Z,-23.40
2023-02-16T00:11:43.719Z,-23.27
2023-02-16T00:14:13.641Z,-23.23
2023-02-16T00:16:42.448Z,-23.50
2023-02-16T00:19:22.458Z,-23.50
2023-02-16T00:21:52.890Z,-23.39
2023-02-16T00:24:21.734Z,-23.66
2023-02-16T00:26:50.943Z,-23.63
2023-02-16T00:29:25.591Z,-23.44
2023-02-16T00:31:55.491Z,-23.56
2023-02-16T00:34:29.247Z,-23.81
2023-02-16T00:36:58.257Z,-23.61
2023-02-16T00:39:27.432Z,-23.71
2023-02-16T00:41:59.711Z,-23.81
2023-02-16T00:44:38.369Z,-24.04
2023-02-16T00:47:30.478Z,-23.87
2023-02-16T00:50:01.971Z,-24.62
2023-02-16T00:52:31.292Z,-23.80
2023-02-16T00:55:01.306Z,-23.96
2023-02-16T00:57:35.197Z,-23.85
2023-02-16T01:00:09.784Z,-23.92
2023-02-16T01:02:40.593Z,-23.63
2023-02-16T01:05:09.419Z,-23.77
2023-02-16T01:07:56.635Z,-23.84
2023-02-16T01:10:44.758Z,-24.36
2023-02-16T01:13:14.912Z,-23.95
2023-02-16T01:15:44.337Z,-23.75
2023-02-16T01:18:19.146Z,-23.79
2023-02-16T01:20:48.390Z,-23.70
2023-02-16T01:23:17.113Z,-23.80
2023-02-16T01:25:45.735Z,-23.84
2023-02-16T01:28:25.634Z,-23.69
2023-02-16T01:30:54.938Z,-23.78
2023-02-16T01:33:23.835Z,-23.67
2023-02-16T01:35:54.484Z,-23.60
2023-02-16T01:38:26.197Z,-23.78
2023-02-16T01:41:00.402Z,-23.84
2023-02-16T01:43:49.269Z,-23.93
2023-02-16T01:46:50.188Z,-23.68
2023-02-16T01:49:21.044Z,-23.79
2023-02-16T01:51:59.143Z,-23.75
2023-02-16T01:54:34.359Z,-23.48
2023-02-16T01:57:27.999Z,-23.49
2023-02-16T01:59:56.675Z,-23.52
2023-02-16T02:02:34.630Z,-23.68
2023-02-16T02:05:36.294Z,-23.59
2023-02-16T02:08:30.827Z,-23.61
2023-02-16T02:11:15.136Z,-23.58
2023-02-16T02:14:00.156Z,-23.67
2023-02-16T02:16:32.344Z,-23.69
2023-02-16T02:19:01.927Z,-23.65
2023-02-16T02:22:33.608Z,-23.59
2023-02-16T02:25:41.806Z,-23.67
2023-02-16T02:28:25.978Z,-23.73
2023-02-16T02:30:59.074Z,-23.73
2023-02-16T02:34:02.770Z,-23.90
2023-02-16T02:36:31.378Z,-23.64
2023-02-16T02:39:18.553Z,-23.61
2023-02-16T02:42:05.647Z,-23.91
2023-02-16T02:45:05.408Z,-23.61
2023-02-16T02:47:44.918Z,-23.75
2023-02-16T02:51:13.334Z,-23.56
2023-02-16T02:53:49.862Z,-23.68
2023-02-16T02:56:38.249Z,-23.60
2023-02-16T02:59:29.088Z,-24.21
2023-02-16T03:02:02.089Z,-23.53
2023-02-16T03:04:32.222Z,-23.43
2023-02-16T03:07:03.320Z,-23.43
2023-02-16T03:09:32.113Z,-23.90
2023-02-16T03:12:21.872Z,-23.63
2023-02-16T03:14:59.764Z,-23.15
2023-02-16T03:17:56.515Z,-23.16
2023-02-16T03:20:43.761Z,-23.17
2023-02-16T03:23:31.896Z,-23.19
2023-02-16T03:26:18.716Z,-22.97
2023-02-16T03:29:07.608Z,-22.86
2023-02-16T03:31:41.512Z,-22.93
2023-02-16T03:34:11.332Z,-23.00
2023-02-16T03:36:44.249Z,-22.68
2023-02-16T03:39:13.544Z,-22.32
2023-02-16T03:41:49.884Z,-21.99
2023-02-16T03:44:19.154Z,-21.87
2023-02-16T03:46:50.344Z,-20.83
2023-02-16T03:49:20.058Z,-20.07
2023-02-16T03:51:51.490Z,-19.06
2023-02-16T03:54:20.256Z,-18.74
2023-02-16T03:56:48.693Z,-18.62
2023-02-16T03:59:17.572Z,-18.23
2023-02-16T04:01:46.462Z,-17.82
2023-02-16T04:04:15.997Z,-17.98
2023-02-16T04:06:44.571Z,-18.33
2023-02-16T04:09:13.166Z,-18.81
2023-02-16T04:12:00.126Z,-19.37
2023-02-16T04:14:29.203Z,-19.02
2023-02-16T04:17:00.244Z,-19.06
2023-02-16T04:19:28.958Z,-19.21
2023-02-16T04:21:57.499Z,-20.01
2023-02-16T04:24:26.459Z,-19.11
2023-02-16T04:26:55.134Z,-19.32
2023-02-16T04:29:24.032Z,-19.11
2023-02-16T04:31:52.726Z,-19.13
2023-02-16T04:34:21.545Z,-19.23
2023-02-16T04:36:50.305Z,-19.12
2023-02-16T04:39:19.286Z,-19.22
2023-02-16T04:41:48.143Z,-19.13
2023-02-16T04:44:16.916Z,-19.04
2023-02-16T04:46:45.934Z,-19.25
2023-02-16T04:49:15.132Z,-19.02
2023-02-16T04:51:44.029Z,-19.07
2023-02-16T04:54:13.143Z,-18.85
2023-02-16T04:56:45.807Z,-18.76
2023-02-16T04:59:16.108Z,-18.68
2023-02-16T05:01:46.857Z,-19.35
2023-02-16T05:04:17.138Z,-18.75
2023-02-16T05:06:46.589Z,-18.86
2023-02-16T05:09:15.307Z,-19.28
2023-02-16T05:12:02.800Z,-18.52
2023-02-16T05:14:43.352Z,-18.28
2023-02-16T05:17:19.591Z,-18.09
2023-02-16T05:19:51.988Z,-17.89
2023-02-16T05:22:21.543Z,-17.88
2023-02-16T05:24:50.604Z,-18.41
2023-02-16T05:27:24.909Z,-17.71
2023-02-16T05:29:53.808Z,-17.35
2023-02-16T05:32:25.366Z,-17.32
2023-02-16T05:34:57.235Z,-17.42
2023-02-16T05:37:26.039Z,-17.15
2023-02-16T05:39:54.743Z,-17.50
2023-02-16T05:42:23.374Z,-16.48
2023-02-16T05:44:52.034Z,-16.11
2023-02-16T05:47:22.479Z,-15.91
2023-02-16T05:49:51.572Z,-15.68
2023-02-16T05:52:20.244Z,-15.26
2023-02-16T05:54:48.689Z,-15.54
2023-02-16T05:57:17.329Z,-15.16
2023-02-16T05:59:46.287Z,-15.20
2023-02-16T06:02:15.410Z,-15.10
2023-02-16T06:04:44.110Z,-14.95
2023-02-16T06:07:14.827Z,-15.45
2023-02-16T06:09:44.286Z,-14.97
2023-02-16T06:12:13.697Z,-14.99
2023-02-16T06:14:42.339Z,-15.00
2023-02-16T06:17:11.284Z,-14.89
2023-02-16T06:19:40.130Z,-14.65
2023-02-16T06:22:08.710Z,-14.60
2023-02-16T06:24:39.948Z,-14.40
2023-02-16T06:27:08.684Z,-14.02
2023-02-16T06:29:37.319Z,-13.88
2023-02-16T06:32:06.216Z,-13.84
2023-02-16T06:34:34.943Z,-13.77
2023-02-16T06:37:03.729Z,-13.63
2023-02-16T06:39:32.225Z,-13.45
2023-02-16T06:42:00.865Z,-13.15
2023-02-16T06:44:29.606Z,-13.02
2023-02-16T06:46:58.645Z,-12.67
2023-02-16T06:49:28.026Z,-12.24
2023-02-16T06:51:56.931Z,-12.56
2023-02-16T06:54:25.688Z,-11.93
2023-02-16T06:56:54.280Z,-12.51
2023-02-16T06:59:23.018Z,-12.57
2023-02-16T07:01:51.683Z,-12.71
2023-02-16T07:04:23.323Z,-12.44
2023-02-16T07:06:54.632Z,-12.32
2023-02-16T07:09:23.757Z,-12.53
2023-02-16T07:11:52.487Z,-12.54
2023-02-16T07:14:21.517Z,-12.32
2023-02-16T07:16:50.399Z,-12.16
2023-02-16T07:19:19.096Z,-11.98
2023-02-16T07:21:47.767Z,-11.62
2023-02-16T07:24:16.332Z,-11.60
2023-02-16T07:26:47.987Z,-11.71
2023-02-16T07:29:16.812Z,-12.25
2023-02-16T07:31:45.784Z,-12.26
2023-02-16T07:34:14.432Z,-11.78
2023-02-16T07:36:43.192Z,-11.88
2023-02-16T07:39:12.616Z,-11.62
2023-02-16T07:41:41.214Z,-12.21
2023-02-16T07:44:10.262Z,-11.62
2023-02-16T07:46:39.065Z,-11.46
2023-02-16T07:49:07.899Z,-11.73
2023-02-16T07:51:36.673Z,-11.51
2023-02-16T07:54:05.453Z,-11.63
2023-02-16T07:56:36.700Z,-12.04
2023-02-16T07:59:05.467Z,-12.06
2023-02-16T08:01:35.144Z,-12.11
2023-02-16T08:04:03.721Z,-12.32
2023-02-16T08:06:32.412Z,-12.11
2023-02-16T08:09:01.078Z,-11.89
2023-02-16T08:11:29.918Z,-11.65
2023-02-16T08:14:01.056Z,-11.56
2023-02-16T08:16:30.931Z,-11.82
2023-02-16T08:19:01.200Z,-11.98
2023-02-16T08:21:32.801Z,-11.89
2023-02-16T08:24:04.201Z,-12.21
2023-02-16T08:26:42.402Z,-12.20
2023-02-16T08:29:13.236Z,-12.58
2023-02-16T08:31:48.569Z,-12.34
2023-02-16T08:34:19.515Z,-13.31
2023-02-16T08:36:53.946Z,-12.70
2023-02-16T08:39:33.681Z,-12.68
2023-02-16T08:42:02.801Z,-12.57
2023-02-16T08:44:34.235Z,-12.58
2023-02-16T08:47:03.499Z,-12.42
2023-02-16T08:49:35.012Z,-12.60
2023-02-16T08:52:05.046Z,-12.70
2023-02-16T08:54:34.025Z,-12.61
2023-02-16T08:57:03.727Z,-12.71
2023-02-16T08:59:33.828Z,-12.97
2023-02-16T09:02:02.919Z,-12.75
2023-02-16T09:04:31.785Z,-12.96
2023-02-16T09:07:01.281Z,-12.97
2023-02-16T09:09:33.104Z,-12.96
2023-02-16T09:12:02.235Z,-13.07
2023-02-16T09:14:30.946Z,-12.91
2023-02-16T09:16:59.684Z,-13.06
2023-02-16T09:19:28.991Z,-13.23
2023-02-16T09:22:00.178Z,-13.16
2023-02-16T09:24:29.068Z,-13.34
2023-02-16T09:26:57.675Z,-13.18
2023-02-16T09:29:26.483Z,-13.39
2023-02-16T09:31:57.771Z,-13.39
2023-02-16T09:34:28.343Z,-13.30
2023-02-16T09:36:57.350Z,-13.22
2023-02-16T09:39:26.058Z,-12.98
2023-02-16T09:42:34.128Z,-12.96
2023-02-16T09:45:18.909Z,-13.13
2023-02-16T09:47:51.577Z,-13.02
2023-02-16T09:50:50.261Z,-12.99
2023-02-16T09:53:23.435Z,-13.17
2023-02-16T09:56:03.852Z,-13.14
2023-02-16T09:58:54.998Z,-13.73
2023-02-16T10:01:45.728Z,-13.02
2023-02-16T10:04:36.256Z,-13.08
2023-02-16T10:07:43.564Z,-13.04
2023-02-16T10:10:17.315Z,-13.17
2023-02-16T10:12:56.655Z,-13.33
2023-02-16T10:15:31.363Z,-13.42
2023-02-16T10:18:09.457Z,-13.53
2023-02-16T10:20:45.047Z,-13.57
2023-02-16T10:23:35.054Z,-13.30
2023-02-16T10:26:14.916Z,-13.40
2023-02-16T10:28:51.075Z,-13.38
2023-02-16T10:31:25.742Z,-13.34
2023-02-16T10:34:19.285Z,-13.35
2023-02-16T10:37:32.661Z,-13.33
2023-02-16T10:40:42.621Z,-13.44
2023-02-16T10:43:22.226Z,-13.63
2023-02-16T10:45:57.441Z,-13.60
2023-02-16T10:48:27.101Z,-14.14
2023-02-16T10:51:17.564Z,-13.64
2023-02-16T10:54:12.806Z,-13.63
2023-02-16T10:57:39.803Z,-13.58
2023-02-16T11:00:14.103Z,-13.82
2023-02-16T11:02:44.562Z,-13.66
2023-02-16T11:05:28.571Z,-13.70
2023-02-16T11:08:02.136Z,-14.01
2023-02-16T11:10:51.725Z,-14.07
2023-02-16T11:13:38.770Z,-13.92
2023-02-16T11:16:14.598Z,-14.05
2023-02-16T11:18:47.527Z,-14.09
2023-02-16T11:21:17.530Z,-14.00
2023-02-16T11:24:02.848Z,-14.63
2023-02-16T11:26:32.175Z,-14.33
2023-02-16T11:29:19.958Z,-14.09
2023-02-16T11:31:49.005Z,-14.21
2023-02-16T11:34:34.270Z,-14.13
2023-02-16T11:37:07.875Z,-14.19
2023-02-16T11:39:40.843Z,-14.41
2023-02-16T11:42:28.270Z,-14.32
2023-02-16T11:45:00.337Z,-14.59
2023-02-16T11:47:35.518Z,-14.45
2023-02-16T11:50:29.702Z,-14.48
2023-02-16T11:53:24.245Z,-14.60
2023-02-16T11:56:28.181Z,-14.90
2023-02-16T11:59:09.184Z,-14.81
2023-02-16T12:02:06.083Z,-15.09
2023-02-16T12:04:34.760Z,-15.01
2023-02-16T12:07:28.763Z,-15.25
2023-02-16T12:10:11.227Z,-15.17
2023-02-16T12:13:01.668Z,-15.21
2023-02-16T12:15:50.725Z,-15.29
2023-02-16T12:18:35.044Z,-15.56
2023-02-16T12:21:19.244Z,-16.23
2023-02-16T12:24:06.222Z,-15.88
2023-02-16T12:26:43.797Z,-15.77
2023-02-16T12:29:31.597Z,-15.89
2023-02-16T12:32:16.864Z,-16.70
2023-02-16T12:34:58.353Z,-16.21
2023-02-16T12:37:40.640Z,-16.69
2023-02-16T12:40:27.944Z,-16.66
2023-02-16T12:43:04.818Z,-16.54
2023-02-16T12:45:39.484Z,-16.65
2023-02-16T12:48:30.143Z,-16.74
2023-02-16T12:51:03.569Z,-16.87
2023-02-16T12:53:42.642Z,-18.41
2023-02-16T12:56:20.537Z,-17.00
2023-02-16T12:58:57.058Z,-17.56
2023-02-16T13:01:34.579Z,-17.16
2023-02-16T13:04:15.524Z,-17.03
2023-02-16T13:06:56.519Z,-17.04
2023-02-16T13:09:38.764Z,-17.10
2023-02-16T13:12:29.691Z,-17.17
2023-02-16T13:15:28.746Z,-17.19
2023-02-16T13:18:02.496Z,-17.82
2023-02-16T13:20:32.580Z,-17.32
2023-02-16T13:23:16.610Z,-17.23
2023-02-16T13:26:05.407Z,-17.26
2023-02-16T13:29:11.823Z,-17.29
2023-02-16T13:31:50.129Z,-17.32
2023-02-16T13:34:19.316Z,-17.34
2023-02-16T13:37:19.052Z,-17.40
2023-02-16T13:39:58.697Z,-17.49
2023-02-16T13:42:41.611Z,-17.58
2023-02-16T13:45:22.690Z,-17.88
2023-02-16T13:47:54.517Z,-18.41
2023-02-16T13:50:23.254Z,-17.70
2023-02-16T13:52:54.294Z,-17.76
2023-02-16T13:55:34.496Z,-17.78
2023-02-16T13:58:25.988Z,-17.95
2023-02-16T14:00:55.409Z,-18.31
2023-02-16T14:03:24.474Z,-18.01
2023-02-16T14:05:55.874Z,-18.16
2023-02-16T14:08:28.947Z,-18.24
2023-02-16T14:11:04.731Z,-18.33
2023-02-16T14:13:47.636Z,-18.52
2023-02-16T14:16:23.262Z,-18.68
2023-02-16T14:19:25.949Z,-19.13
2023-02-16T14:21:54.948Z,-19.34
2023-02-16T14:24:26.750Z,-19.16
2023-02-16T14:26:55.790Z,-19.22
2023-02-16T14:29:33.702Z,-19.21
2023-02-16T14:32:18.251Z,-19.17
2023-02-16T14:34:57.029Z,-19.39
2023-02-16T14:37:31.991Z,-19.23
2023-02-16T14:40:36.281Z,-18.95
2023-02-16T14:43:19.703Z,-19.06
2023-02-16T14:45:52.374Z,-18.85
2023-02-16T14:48:42.560Z,-18.79
2023-02-16T14:51:39.790Z,-18.92
2023-02-16T14:54:41.094Z,-19.03
2023-02-16T14:57:25.054Z,-18.87
2023-02-16T15:00:15.898Z,-18.60
2023-02-16T15:03:08.129Z,-18.66
2023-02-16T15:05:38.684Z,-18.64
2023-02-16T15:08:25.062Z,-18.59
2023-02-16T15:10:54.834Z,-18.74
2023-02-16T15:13:32.745Z,-18.82
2023-02-16T15:16:04.559Z,-18.65
2023-02-16T15:18:48.579Z,-19.14
2023-02-16T15:21:24.838Z,-18.75
2023-02-16T15:23:58.915Z,-19.00
2023-02-16T15:26:33.899Z,-18.93
2023-02-16T15:29:25.584Z,-18.80
2023-02-16T15:31:58.897Z,-19.01
2023-02-16T15:34:37.149Z,-18.98
2023-02-16T15:37:34.568Z,-18.86
2023-02-16T15:40:26.358Z,-19.10
2023-02-16T15:42:56.694Z,-19.64
2023-02-16T15:45:30.206Z,-19.38
2023-02-16T15:48:16.883Z,-19.18
2023-02-16T15:50:47.920Z,-19.34
2023-02-16T15:53:43.645Z,-19.37
2023-02-16T15:56:18.453Z,-19.14
2023-02-16T15:58:48.630Z,-19.62
2023-02-16T16:01:31.570Z,-19.46
2023-02-16T16:04:03.401Z,-19.63
2023-02-16T16:06:38.211Z,-19.48
2023-02-16T16:09:09.096Z,-19.55
2023-02-16T16:11:38.749Z,-19.60
2023-02-16T16:14:08.128Z,-19.77
2023-02-16T16:16:37.687Z,-19.67
2023-02-16T16:19:20.328Z,-19.84
2023-02-16T16:21:57.548Z,-19.74
2023-02-16T16:24:39.871Z,-19.61
2023-02-16T16:27:12.554Z,-19.84
2023-02-16T16:29:45.462Z,-19.79
2023-02-16T16:32:23.703Z,-19.70
2023-02-16T16:34:53.025Z,-20.37
2023-02-16T16:37:32.210Z,-20.37
2023-02-16T16:40:21.418Z,-19.87
2023-02-16T16:43:16.741Z,-19.92
2023-02-16T16:45:46.937Z,-20.01
2023-02-16T16:48:15.394Z,-20.18
2023-02-16T16:50:44.176Z,-20.90
2023-02-16T16:53:33.710Z,-19.98
2023-02-16T16:56:02.855Z,-20.08
2023-02-16T16:58:31.534Z,-20.19
2023-02-16T17:01:02.217Z,-19.95
2023-02-16T17:03:31.443Z,-20.22
2023-02-16T17:06:00.210Z,-20.30
2023-02-16T17:08:28.971Z,-20.35
2023-02-16T17:10:57.780Z,-20.30
2023-02-16T17:13:28.283Z,-20.26
2023-02-16T17:15:58.847Z,-20.55
2023-02-16T17:18:28.052Z,-20.32
2023-02-16T17:20:58.593Z,-20.30
2023-02-16T17:23:29.457Z,-21.04
2023-02-16T17:25:58.658Z,-20.59
2023-02-16T17:28:29.989Z,-20.61
2023-02-16T17:31:01.818Z,-20.72
2023-02-16T17:33:30.706Z,-20.83
2023-02-16T17:35:59.778Z,-20.75
2023-02-16T17:38:28.680Z,-20.65
2023-02-16T17:40:58.702Z,-20.98
2023-02-16T17:43:28.242Z,-20.75
2023-02-16T17:46:00.324Z,-21.04
2023-02-16T17:48:31.314Z,-20.86
2023-02-16T17:50:59.982Z,-21.21
2023-02-16T17:53:29.537Z,-21.40
2023-02-16T17:55:59.028Z,-21.34
2023-02-16T17:58:27.847Z,-21.60
2023-02-16T18:00:56.602Z,-21.56
2023-02-16T18:03:27.582Z,-21.38
2023-02-16T18:05:56.894Z,-21.28
2023-02-16T18:08:26.234Z,-21.12
2023-02-16T18:11:04.050Z,-20.98
2023-02-16T18:13:34.811Z,-21.04
2023-02-16T18:16:07.840Z,-21.13
2023-02-16T18:18:42.752Z,-21.42
2023-02-16T18:21:14.017Z,-20.92
2023-02-16T18:23:42.843Z,-21.09
2023-02-16T18:26:15.726Z,-20.91
2023-02-16T18:28:46.731Z,-20.92
2023-02-16T18:31:15.738Z,-20.75
2023-02-16T18:33:44.717Z,-20.71
2023-02-16T18:36:14.329Z,-20.73
2023-02-16T18:38:44.362Z,-20.80
2023-02-16T18:41:14.401Z,-20.93
2023-02-16T18:43:43.375Z,-21.11
2023-02-16T18:46:12.755Z,-21.15
2023-02-16T18:48:42.351Z,-21.12
2023-02-16T18:51:12.761Z,-21.10
2023-02-16T18:53:41.784Z,-21.08
2023-02-16T18:56:12.751Z,-21.07
2023-02-16T18:58:41.623Z,-21.21
2023-02-16T19:01:28.978Z,-21.21
2023-02-16T19:03:59.048Z,-21.07
2023-02-16T19:06:27.899Z,-21.32
2023-02-16T19:08:59.151Z,-21.17
2023-02-16T19:11:32.113Z,-21.51
2023-02-16T19:14:01.033Z,-21.59
2023-02-16T19:16:29.752Z,-21.47
2023-02-16T19:19:01.411Z,-22.06
2023-02-16T19:21:30.148Z,-21.68
2023-02-16T19:23:59.028Z,-21.83
2023-02-16T19:26:27.895Z,-22.12
2023-02-16T19:28:56.629Z,-21.85
2023-02-16T19:31:29.173Z,-21.65
2023-02-16T19:33:59.849Z,-21.64
2023-02-16T19:36:32.291Z,-21.95
2023-02-16T19:39:02.415Z,-21.94
2023-02-16T19:41:37.126Z,-21.62
2023-02-16T19:44:06.073Z,-21.81
2023-02-16T19:46:35.344Z,-21.88
2023-02-16T19:49:04.625Z,-21.93
2023-02-16T19:51:33.648Z,-21.95
2023-02-16T19:54:04.725Z,-22.07
2023-02-16T19:56:33.936Z,-22.54
2023-02-16T19:59:02.769Z,-22.06
2023-02-16T20:01:31.963Z,-22.11
2023-02-16T20:04:01.769Z,-22.24
2023-02-16T20:06:31.865Z,-22.12
2023-02-16T20:09:01.901Z,-22.43
2023-02-16T20:11:31.304Z,-22.49
2023-02-16T20:14:00.755Z,-22.72
2023-02-16T20:16:30.467Z,-22.53
2023-02-16T20:19:00.231Z,-23.29
2023-02-16T20:21:30.829Z,-22.83
2023-02-16T20:24:03.278Z,-22.49
2023-02-16T20:26:38.288Z,-23.18
2023-02-16T20:29:08.886Z,-22.44
2023-02-16T20:31:58.728Z,-22.32
2023-02-16T20:34:28.759Z,-22.39
2023-02-16T20:36:57.585Z,-22.49
2023-02-16T20:39:26.267Z,-22.51
2023-02-16T20:41:59.146Z,-22.39
2023-02-16T20:44:28.189Z,-22.63
2023-02-16T20:46:57.272Z,-22.53
2023-02-16T20:49:25.977Z,-22.59
2023-02-16T20:51:56.923Z,-22.79
2023-02-16T20:54:25.584Z,-22.89
2023-02-16T20:56:54.279Z,-22.99
2023-02-16T20:59:23.227Z,-23.03
2023-02-16T21:01:52.954Z,-23.00
2023-02-16T21:04:22.041Z,-23.15
2023-02-16T21:06:50.935Z,-23.23
2023-02-16T21:09:19.653Z,-22.97
2023-02-16T21:11:48.480Z,-22.95
2023-02-16T21:14:17.068Z,-23.08
2023-02-16T21:16:45.866Z,-23.14
2023-02-16T21:19:22.921Z,-23.31
2023-02-16T21:21:53.385Z,-23.15
2023-02-16T21:24:22.377Z,-23.16
2023-02-16T21:26:51.188Z,-23.24
2023-02-16T21:29:20.023Z,-23.17
2023-02-16T21:31:48.700Z,-23.07
2023-02-16T21:34:17.501Z,-23.73
2023-02-16T21:36:46.285Z,-23.12
2023-02-16T21:39:15.083Z,-23.16
2023-02-16T21:41:43.904Z,-23.80
2023-02-16T21:44:18.725Z,-23.25
2023-02-16T21:46:48.863Z,-23.14
2023-02-16T21:49:20.130Z,-23.12
2023-02-16T21:51:49.885Z,-22.86
2023-02-16T21:54:43.089Z,-22.84
2023-02-16T21:57:11.826Z,-22.99
2023-02-16T21:59:40.386Z,-23.08
2023-02-16T22:02:11.543Z,-22.91
2023-02-16T22:04:40.243Z,-23.07
2023-02-16T22:07:09.164Z,-22.91
2023-02-16T22:09:37.948Z,-23.10
2023-02-16T22:12:12.525Z,-22.89
2023-02-16T22:14:41.306Z,-22.88
2023-02-16T22:17:09.901Z,-22.77
2023-02-16T22:19:38.693Z,-22.84
2023-02-16T22:22:07.401Z,-22.98
2023-02-16T22:24:36.112Z,-23.57
2023-02-16T22:27:04.959Z,-22.88
2023-02-16T22:29:33.523Z,-23.02
2023-02-16T22:32:02.374Z,-23.15
2023-02-16T22:34:31.168Z,-23.04
2023-02-16T22:37:02.619Z,-23.80
2023-02-16T22:39:32.108Z,-23.23
2023-02-16T22:42:00.968Z,-23.39
2023-02-16T22:44:29.447Z,-23.32
2023-02-16T22:46:58.509Z,-23.52
2023-02-16T22:49:27.326Z,-23.61
2023-02-16T22:51:56.068Z,-23.85
2023-02-16T22:54:25.409Z,-23.65
2023-02-16T22:56:54.111Z,-23.86
2023-02-16T22:59:22.912Z,-24.37
2023-02-16T23:01:52.214Z,-23.59
2023-02-16T23:04:20.999Z,-23.88
2023-02-16T23:06:49.801Z,-24.15
2023-02-16T23:09:21.603Z,-24.00
2023-02-16T23:11:51.207Z,-23.98
2023-02-16T23:14:20.307Z,-23.85
2023-02-16T23:16:52.289Z,-24.07
2023-02-16T23:19:24.101Z,-24.25
2023-02-16T23:21:53.249Z,-23.98
2023-02-16T23:24:23.902Z,-24.25
2023-02-16T23:26:53.786Z,-24.12
2023-02-16T23:29:22.773Z,-24.26
2023-02-16T23:31:52.610Z,-24.02
2023-02-16T23:34:21.688Z,-24.29
2023-02-16T23:36:50.470Z,-24.26
2023-02-16T23:39:19.499Z,-24.93
2023-02-16T23:41:48.270Z,-24.37
2023-02-16T23:44:16.782Z,-24.34
2023-02-16T23:46:45.840Z,-24.23
2023-02-16T23:49:14.452Z,-24.09
2023-02-16T23:51:43.189Z,-24.27
2023-02-16T23:54:12.146Z,-24.22
2023-02-16T23:56:41.969Z,-24.57
2023-02-16T23:59:10.695Z,-24.13
